Time;durP1;ratioP1;P1;durP2;ratioP2;P2;SDS_P1;SDS_P2;PMS_P1;PMS_P2;Temp;Humidity;BMP_temperature;BMP_pressure;BME280_temperature;BME280_humidity;BME280_pressure;Samples;Min_cycle;Max_cycle;Signal;HPM_P1;HPM_P2
2022/07/04 00:00:29;;;;;;;4.13;2.20;;;;;;;18.64;69.63;96281.09;2025450;29;20048;-64
2022/07/04 00:01:30;;;;;;;6.18;2.15;;;;;;;18.72;68.72;96286.63;2032052;29;20040;-65
2022/07/04 00:02:32;;;;;;;5.53;2.20;;;;;;;18.82;68.77;96280.69;2040128;29;20051;-66
2022/07/04 00:03:33;;;;;;;4.43;2.25;;;;;;;18.89;67.88;96276.63;2032404;29;20044;-65
2022/07/04 00:04:34;;;;;;;3.47;1.80;;;;;;;18.86;68.37;96277.72;2032875;29;20062;-66
2022/07/04 00:05:35;;;;;;;3.90;2.22;;;;;;;18.91;68.24;96282.63;2040148;29;20044;-64
2022/07/04 00:06:36;;;;;;;4.65;2.35;;;;;;;18.83;68.86;96272.69;2040505;29;20046;-66
2022/07/04 00:07:39;;;;;;;4.97;2.20;;;;;;;18.78;69.75;96282.72;2048051;29;20051;-67
2022/07/04 00:08:40;;;;;;;3.70;2.42;;;;;;;18.73;70.03;96280.38;2040370;29;20043;-66
2022/07/04 00:09:41;;;;;;;3.58;1.80;;;;;;;18.70;70.67;96275.38;2040476;29;20047;-65
2022/07/04 00:10:42;;;;;;;4.53;2.35;;;;;;;18.65;70.52;96268.78;2032716;29;20537;-64
2022/07/04 00:11:44;;;;;;;4.22;2.17;;;;;;;18.60;70.85;96269.13;2040213;29;20047;-67
2022/07/04 00:12:45;;;;;;;3.67;2.08;;;;;;;18.60;70.43;96265.66;2040363;29;20055;-64
2022/07/04 00:13:46;;;;;;;4.95;2.30;;;;;;;18.64;69.71;96270.56;2040573;29;20546;-66
2022/07/04 00:14:47;;;;;;;4.45;2.15;;;;;;;18.64;69.86;96267.13;2040542;29;20055;-65
2022/07/04 00:15:48;;;;;;;5.57;2.33;;;;;;;18.61;70.47;96259.47;2032113;29;20091;-65
2022/07/04 00:16:49;;;;;;;3.42;2.17;;;;;;;18.59;70.99;96262.19;2032723;29;20036;-63
2022/07/04 00:17:51;;;;;;;5.40;2.28;;;;;;;18.61;71.19;96265.56;2040297;29;20051;-65
2022/07/04 00:18:52;;;;;;;5.38;1.88;;;;;;;18.65;70.48;96264.34;2040141;29;20043;-65
2022/07/04 00:19:53;;;;;;;2.50;1.90;;;;;;;18.67;69.68;96264.25;2040349;29;20048;-64
2022/07/04 00:20:54;;;;;;;3.55;1.85;;;;;;;18.66;69.89;96263.41;2040170;29;20058;-67
2022/07/04 00:21:55;;;;;;;5.15;2.00;;;;;;;18.64;70.06;96259.22;2032715;29;20052;-65
2022/07/04 00:22:57;;;;;;;2.90;2.08;;;;;;;18.73;69.98;96255.88;2040291;29;20050;-65
2022/07/04 00:23:58;;;;;;;6.18;2.13;;;;;;;18.81;69.94;96248.28;2040179;29;20438;-64
2022/07/04 00:25:00;;;;;;;3.95;1.95;;;;;;;18.86;68.94;96246.13;2032399;29;20059;-64
2022/07/04 00:26:01;;;;;;;4.28;1.70;;;;;;;18.84;69.05;96236.69;2032356;29;20467;-65
2022/07/04 00:27:02;;;;;;;4.40;2.08;;;;;;;18.80;69.71;96240.53;2040347;29;20532;-64
2022/07/04 00:28:03;;;;;;;4.10;1.88;;;;;;;18.73;71.10;96240.09;2040489;29;20048;-65
2022/07/04 00:29:05;;;;;;;4.55;2.05;;;;;;;18.62;70.83;96238.28;2040675;29;20403;-65
2022/07/04 00:30:06;;;;;;;3.88;1.92;;;;;;;18.62;71.24;96238.28;2048605;28;20063;-65
2022/07/04 00:31:08;;;;;;;5.28;1.90;;;;;;;18.64;71.06;96241.63;2048094;29;20063;-65
2022/07/04 00:32:09;;;;;;;3.15;1.92;;;;;;;18.66;70.11;96249.44;2032409;29;20068;-66
2022/07/04 00:33:12;;;;;;;4.97;2.20;;;;;;;18.67;70.12;96240.56;2032251;29;20074;-65
2022/07/04 00:34:13;;;;;;;5.00;2.42;;;;;;;18.68;70.26;96239.59;2047876;29;20051;-66
2022/07/04 00:35:15;;;;;;;4.10;2.00;;;;;;;18.67;70.17;96237.94;2040914;29;20418;-66
2022/07/04 00:36:16;;;;;;;3.42;2.20;;;;;;;18.61;70.41;96239.25;2040589;29;20055;-65
2022/07/04 00:37:17;;;;;;;4.90;2.22;;;;;;;18.60;70.52;96242.81;2032467;29;20040;-66
2022/07/04 00:38:18;;;;;;;6.53;1.98;;;;;;;18.66;70.20;96231.03;2040174;29;20048;-66
2022/07/04 00:39:20;;;;;;;3.50;2.10;;;;;;;18.65;70.38;96224.06;2024838;29;20435;-66
2022/07/04 00:40:21;;;;;;;2.47;2.00;;;;;;;18.68;70.44;96219.44;2032919;29;20044;-65
2022/07/04 00:41:22;;;;;;;4.43;2.20;;;;;;;18.65;71.37;96224.06;2040242;29;20056;-64
2022/07/04 00:42:24;;;;;;;2.78;1.85;;;;;;;18.57;71.42;96221.19;2032753;29;20047;-66
2022/07/04 00:43:26;;;;;;;3.15;2.00;;;;;;;18.51;71.68;96233.00;2024642;29;20047;-64
2022/07/04 00:44:27;;;;;;;3.58;2.20;;;;;;;18.35;72.56;96222.78;2039995;29;20519;-64
2022/07/04 00:45:28;;;;;;;4.57;2.03;;;;;;;18.34;72.57;96222.94;2040270;29;20051;-66
2022/07/04 00:46:30;;;;;;;5.20;2.15;;;;;;;18.33;72.50;96227.31;2047911;29;20047;-65
2022/07/04 00:47:32;;;;;;;7.45;2.10;;;;;;;18.34;72.72;96233.44;2040344;29;20052;-66
2022/07/04 00:48:33;;;;;;;3.83;2.22;;;;;;;18.35;72.79;96233.31;2032445;29;20040;-65
2022/07/04 00:49:34;;;;;;;4.75;2.10;;;;;;;18.36;73.41;96236.78;2024882;29;20040;-65
2022/07/04 00:50:36;;;;;;;3.00;2.10;;;;;;;18.24;74.27;96236.72;2017926;29;20053;-65
2022/07/04 00:51:37;;;;;;;4.32;2.40;;;;;;;18.25;73.47;96241.03;2032258;29;20055;-65
2022/07/04 00:52:39;;;;;;;10.23;2.33;;;;;;;18.26;74.25;96231.38;2040177;29;20044;-65
2022/07/04 00:53:40;;;;;;;3.30;2.35;;;;;;;18.20;74.00;96235.31;2040503;29;20040;-66
2022/07/04 00:54:41;;;;;;;2.38;1.80;;;;;;;18.26;73.82;96231.38;2032809;29;20083;-65
2022/07/04 00:55:42;;;;;;;5.05;2.42;;;;;;;18.26;72.90;96231.38;2032471;29;20047;-66
2022/07/04 00:56:44;;;;;;;4.13;2.15;;;;;;;18.23;73.61;96237.69;2040695;29;20059;-65
2022/07/04 00:57:45;;;;;;;3.53;2.13;;;;;;;18.20;74.11;96224.78;2039759;29;20039;-65
2022/07/04 00:58:47;;;;;;;3.78;2.25;;;;;;;18.17;73.62;96232.03;2040063;29;20055;-65
2022/07/04 00:59:48;;;;;;;6.38;2.10;;;;;;;18.18;74.02;96231.09;2040034;29;20047;-66
2022/07/04 01:00:49;;;;;;;4.30;2.63;;;;;;;18.17;74.34;96224.97;2032213;29;20052;-65
2022/07/04 01:01:51;;;;;;;2.97;2.42;;;;;;;18.17;74.43;96224.97;2024913;29;20074;-66
2022/07/04 01:02:52;;;;;;;4.38;2.50;;;;;;;18.17;73.92;96224.97;2025176;29;20060;-66
2022/07/04 01:03:53;;;;;;;4.25;2.33;;;;;;;18.22;74.23;96228.13;2032026;29;20048;-65
2022/07/04 01:04:54;;;;;;;3.47;2.25;;;;;;;18.13;74.24;96222.72;2032447;29;20425;-66
2022/07/04 01:05:56;;;;;;;5.00;2.50;;;;;;;18.14;74.53;96230.47;2016859;29;20064;-66
2022/07/04 01:06:57;;;;;;;2.53;2.20;;;;;;;18.12;73.92;96227.13;2025048;29;20055;-65
2022/07/04 01:07:58;;;;;;;7.93;2.20;;;;;;;18.10;74.82;96229.03;2039721;29;20043;-67
2022/07/04 01:09:00;;;;;;;4.72;2.47;;;;;;;18.11;74.55;96235.97;2032356;29;20060;-65
2022/07/04 01:10:02;;;;;;;3.83;2.60;;;;;;;18.08;74.60;96231.75;2025031;29;20053;-65
2022/07/04 01:11:03;;;;;;;3.85;2.42;;;;;;;18.20;74.30;96230.03;2025141;29;20063;-66
2022/07/04 01:12:06;;;;;;;7.38;2.65;;;;;;;18.22;74.85;96228.13;2024811;29;20056;-66
2022/07/04 01:13:07;;;;;;;7.32;2.80;;;;;;;18.22;74.79;96224.66;2032375;29;20047;-66
2022/07/04 01:14:08;;;;;;;4.38;2.85;;;;;;;18.12;75.07;96226.28;2032008;29;20550;-65
2022/07/04 01:15:09;;;;;;;3.55;2.72;;;;;;;17.99;75.93;96227.19;2025007;29;20439;-65
2022/07/04 01:16:11;;;;;;;4.75;2.90;;;;;;;17.96;76.42;96230.06;2032343;29;20080;-65
2022/07/04 01:17:12;;;;;;;6.32;2.67;;;;;;;18.01;76.03;96232.31;2025169;29;20048;-64
2022/07/04 01:18:13;;;;;;;4.13;2.80;;;;;;;17.95;76.28;96231.00;2024768;29;20048;-65
2022/07/04 01:19:14;;;;;;;4.18;2.80;;;;;;;17.97;76.75;96223.00;2033538;29;20052;-64
2022/07/04 01:20:16;;;;;;;4.47;2.95;;;;;;;17.92;77.09;96230.38;2033502;29;20051;-65
2022/07/04 01:21:17;;;;;;;5.53;2.80;;;;;;;17.87;76.74;96219.38;2041929;29;20634;-65
2022/07/04 01:22:19;;;;;;;4.13;2.80;;;;;;;17.87;77.18;96222.81;2026001;29;20060;-65
2022/07/04 01:23:20;;;;;;;3.80;2.53;;;;;;;17.86;77.53;96226.41;2018632;29;20507;-65
2022/07/04 01:24:22;;;;;;;5.93;2.92;;;;;;;17.81;78.29;96228.53;2018502;29;20049;-64
2022/07/04 01:25:23;;;;;;;4.20;2.58;;;;;;;17.80;78.18;96219.81;2034075;29;20667;-65
2022/07/04 01:26:25;;;;;;;6.93;3.05;;;;;;;17.80;77.62;96211.94;2041568;29;20076;-65
2022/07/04 01:27:26;;;;;;;4.13;2.53;;;;;;;17.82;77.53;96212.66;2041856;29;20528;-64
2022/07/04 01:28:27;;;;;;;7.50;2.90;;;;;;;17.77;77.85;96217.34;2034143;29;20145;-65
2022/07/04 01:29:32;;;;;;;5.07;2.60;;;;;;;17.77;77.90;96216.53;2062824;23;20048;31
2022/07/04 01:30:33;;;;;;;7.32;3.13;;;;;;;17.72;78.51;96219.50;2031920;29;20411;-65
2022/07/04 01:31:34;;;;;;;5.45;2.90;;;;;;;17.70;77.73;96212.69;2049719;29;20047;-62
2022/07/04 01:32:36;;;;;;;5.78;2.97;;;;;;;17.68;78.22;96223.28;2034290;29;20048;-62
2022/07/04 01:33:37;;;;;;;5.22;2.90;;;;;;;17.63;78.75;96233.28;2041881;29;20063;-63
2022/07/04 01:34:38;;;;;;;5.55;3.28;;;;;;;17.61;79.43;96230.78;2041732;29;20039;-62
2022/07/04 01:35:40;;;;;;;4.25;2.70;;;;;;;17.59;79.13;96226.59;2033820;29;20055;-63
2022/07/04 01:36:41;;;;;;;3.53;2.67;;;;;;;17.70;78.85;96216.16;2026535;29;20059;-62
2022/07/04 01:37:42;;;;;;;5.00;2.80;;;;;;;17.68;78.85;96211.94;2041781;29;20058;-63
2022/07/04 01:38:43;;;;;;;7.43;2.80;;;;;;;17.74;79.32;96216.75;2041196;29;20445;-63
2022/07/04 01:39:45;;;;;;;5.78;2.50;;;;;;;17.70;79.00;96213.53;2041662;29;20063;-62
2022/07/04 01:40:46;;;;;;;5.72;3.13;;;;;;;17.65;79.73;96210.38;2025693;29;20044;-63
2022/07/04 01:41:47;;;;;;;6.15;2.80;;;;;;;17.62;79.32;96219.31;2018566;29;20053;-63
2022/07/04 01:42:49;;;;;;;4.97;2.83;;;;;;;17.56;80.22;96218.91;2018827;29;20495;-63
2022/07/04 01:43:50;;;;;;;4.93;3.20;;;;;;;17.60;79.13;96218.59;2018793;29;20056;-64
2022/07/04 01:44:51;;;;;;;5.10;3.10;;;;;;;17.53;79.63;96211.25;2033592;29;20055;-63
2022/07/04 01:45:52;;;;;;;5.35;2.83;;;;;;;17.51;79.59;96207.88;2033650;29;20114;-62
2022/07/04 01:46:54;;;;;;;4.40;2.92;;;;;;;17.56;79.46;96211.03;2026306;29;20052;-63
2022/07/04 01:47:56;;;;;;;4.47;2.90;;;;;;;17.56;79.16;96203.16;2018305;29;20550;-62
2022/07/04 01:48:58;;;;;;;11.38;2.97;;;;;;;17.55;79.22;96204.94;2033970;29;20530;-62
2022/07/04 01:49:59;;;;;;;5.07;2.85;;;;;;;17.52;80.24;96199.91;2049030;29;20059;-63
2022/07/04 01:51:00;;;;;;;5.55;3.17;;;;;;;17.51;79.74;96195.63;2049219;29;20736;-63
2022/07/04 01:52:01;;;;;;;4.75;2.90;;;;;;;17.47;80.61;96201.19;2034664;29;20047;-63
2022/07/04 01:53:03;;;;;;;3.78;2.67;;;;;;;17.46;80.22;96195.13;2034076;29;20055;-63
2022/07/04 01:54:04;;;;;;;4.95;2.90;;;;;;;17.45;79.78;96201.28;2033946;29;20483;-63
2022/07/04 01:55:06;;;;;;;4.38;2.85;;;;;;;17.46;79.20;96205.63;2033442;29;20047;-63
2022/07/04 01:56:07;;;;;;;4.68;2.63;;;;;;;17.50;80.59;96207.06;2040925;29;20541;-63
2022/07/04 01:57:08;;;;;;;7.28;2.80;;;;;;;17.51;79.61;96202.63;2041229;29;20047;-62
2022/07/04 01:58:09;;;;;;;4.43;2.75;;;;;;;17.48;79.46;96211.59;2041370;29;20055;-63
2022/07/04 01:59:10;;;;;;;3.92;2.70;;;;;;;17.51;79.83;96213.13;2033667;29;20055;-61
2022/07/04 02:01:32;;;;;;;4.75;3.00;;;;;;;17.46;79.96;96217.91;2041705;29;20441;-62
2022/07/04 02:02:33;;;;;;;6.22;2.80;;;;;;;17.50;79.80;96214.94;2044103;29;20047;-63
2022/07/04 02:03:34;;;;;;;8.20;3.25;;;;;;;17.48;80.45;96216.84;2041156;29;20449;-63
2022/07/04 02:04:35;;;;;;;5.00;2.95;;;;;;;17.51;79.92;96210.50;2033723;29;20048;-63
2022/07/04 02:05:37;;;;;;;4.30;2.70;;;;;;;17.57;80.03;96208.31;2026293;29;20048;-62
2022/07/04 02:06:38;;;;;;;4.13;2.70;;;;;;;17.61;78.73;96201.03;2026702;29;20044;-63
2022/07/04 02:07:39;;;;;;;4.90;2.72;;;;;;;17.65;78.85;96197.25;2025549;29;20066;-63
2022/07/04 02:10:02;;;;;;;5.22;2.70;;;;;;;17.62;78.60;96198.31;2028270;29;20095;-62
2022/07/04 02:11:03;;;;;;;5.32;3.10;;;;;;;17.62;78.51;96198.31;2025367;29;20059;-61
2022/07/04 02:13:25;;;;;;;7.63;2.90;;;;;;;17.55;79.26;96206.75;2028741;29;20052;-61
2022/07/04 02:14:27;;;;;;;7.90;3.08;;;;;;;17.50;79.14;96203.59;2025632;29;20040;-61
2022/07/04 02:15:35;;;;;;;5.10;2.75;;;;;;;17.47;78.65;96212.53;2026197;29;20087;-60
2022/07/04 02:16:36;;;;;;;3.80;2.60;;;;;;;17.43;79.65;96203.22;2026559;29;20052;-61
2022/07/04 02:17:37;;;;;;;3.38;2.60;;;;;;;17.37;80.17;96194.00;2026130;29;20052;-60
2022/07/04 02:18:38;;;;;;;5.35;3.08;;;;;;;17.35;79.57;96193.25;2034081;29;20036;-61
2022/07/04 02:19:39;;;;;;;3.92;2.78;;;;;;;17.35;79.61;96195.88;2033557;29;20443;-60
2022/07/04 02:20:41;;;;;;;4.47;2.85;;;;;;;17.33;79.36;96189.06;2034021;29;20048;-61
2022/07/04 02:21:42;;;;;;;5.70;2.80;;;;;;;17.33;79.69;96200.41;2026442;29;20503;-61
2022/07/04 02:22:44;;;;;;;3.25;2.60;;;;;;;17.28;79.61;96202.50;2034127;29;20063;-62
2022/07/04 02:23:45;;;;;;;7.40;2.80;;;;;;;17.22;80.73;96207.34;2033916;29;20530;-60
2022/07/04 02:24:46;;;;;;;5.07;2.70;;;;;;;17.17;80.86;96215.53;2026654;29;20052;-61
2022/07/04 02:25:48;;;;;;;6.22;3.22;;;;;;;17.12;81.09;96202.75;2025666;29;20059;-60
2022/07/04 02:26:49;;;;;;;3.22;2.28;;;;;;;17.08;80.78;96197.81;2026087;29;20499;-61
2022/07/04 02:27:50;;;;;;;3.72;2.80;;;;;;;17.09;81.76;96205.59;2026400;29;20060;-61
2022/07/04 02:28:52;;;;;;;4.32;2.83;;;;;;;17.08;81.15;96200.44;2025730;29;20535;-61
2022/07/04 02:29:53;;;;;;;5.28;2.95;;;;;;;17.05;81.06;96208.53;2025735;29;20067;-59
2022/07/04 02:30:54;;;;;;;4.45;2.85;;;;;;;17.00;82.05;96210.63;2032642;29;20071;-60
2022/07/04 02:31:55;;;;;;;4.72;2.92;;;;;;;17.00;81.47;96216.72;2034136;29;20047;-60
2022/07/04 02:32:57;;;;;;;4.63;2.67;;;;;;;16.96;81.68;96215.25;2025527;29;20084;-61
2022/07/04 02:33:58;;;;;;;4.43;3.20;;;;;;;16.86;81.25;96188.81;2025780;29;20060;-61
2022/07/04 02:34:59;;;;;;;4.43;3.08;;;;;;;17.06;80.35;96218.09;2026007;29;20416;-60
2022/07/04 02:36:00;;;;;;;3.65;2.92;;;;;;;17.08;80.71;96219.66;2033854;29;20059;-61
2022/07/04 02:37:02;;;;;;;5.05;2.83;;;;;;;17.07;80.53;96225.00;2033339;29;20103;-61
2022/07/04 02:38:03;;;;;;;4.47;3.05;;;;;;;17.05;81.36;96213.75;2033096;29;20541;-60
2022/07/04 02:39:04;;;;;;;7.43;2.88;;;;;;;17.02;81.25;96224.47;2033179;29;20051;-61
2022/07/04 02:40:06;;;;;;;5.95;2.60;;;;;;;17.02;81.38;96219.22;2033511;29;20055;-60
2022/07/04 02:41:07;;;;;;;4.38;2.95;;;;;;;17.05;81.15;96214.59;2025774;29;20052;-61
2022/07/04 02:42:09;;;;;;;4.75;2.85;;;;;;;17.05;81.58;96222.47;2033388;29;20059;-61
2022/07/04 02:43:10;;;;;;;7.13;2.70;;;;;;;17.10;79.98;96222.16;2025979;29;20072;-60
2022/07/04 02:44:11;;;;;;;5.80;2.92;;;;;;;17.13;80.80;96227.19;2026090;29;20056;-61
2022/07/04 02:45:13;;;;;;;3.78;2.60;;;;;;;17.10;80.28;96227.41;2033576;29;20048;-61
2022/07/04 02:46:14;;;;;;;4.90;2.80;;;;;;;17.12;80.04;96231.59;2033197;29;20051;-60
2022/07/04 02:47:15;;;;;;;4.93;2.90;;;;;;;17.12;80.78;96234.22;2033125;29;20044;-61
2022/07/04 02:48:16;;;;;;;6.82;2.80;;;;;;;17.10;79.79;96237.91;2032885;29;20052;-61
2022/07/04 02:49:18;;;;;;;6.05;3.30;;;;;;;17.05;80.55;96243.47;2033200;29;20051;-61
2022/07/04 02:50:19;;;;;;;5.30;2.70;;;;;;;17.24;79.66;96245.66;2018255;29;20060;-62
2022/07/04 02:51:20;;;;;;;4.05;3.00;;;;;;;17.25;79.34;96252.59;2020497;29;20089;-61
2022/07/04 02:52:22;;;;;;;6.38;2.90;;;;;;;17.19;79.86;96250.41;2028975;29;20048;-61
2022/07/04 02:53:23;;;;;;;4.63;2.45;;;;;;;17.14;79.93;96250.72;2027119;29;20084;-60
2022/07/04 02:54:24;;;;;;;6.13;2.80;;;;;;;17.17;79.83;96250.50;2025607;29;20503;-61
2022/07/04 02:55:25;;;;;;;6.47;2.70;;;;;;;17.22;79.15;96251.97;2033817;29;20518;-61
2022/07/04 02:56:27;;;;;;;3.72;2.72;;;;;;;17.18;79.65;96248.69;2025787;29;20132;-60
2022/07/04 02:57:28;;;;;;;3.63;2.58;;;;;;;17.20;79.33;96250.28;2033627;29;20047;-61
2022/07/04 02:58:30;;;;;;;3.33;2.70;;;;;;;17.19;79.26;96253.03;2033592;29;20047;-61
2022/07/04 02:59:32;;;;;;;4.57;2.95;;;;;;;17.23;79.56;96248.38;2018011;29;20446;-61
2022/07/04 03:00:33;;;;;;;5.70;2.80;;;;;;;17.14;79.55;96249.88;2025985;29;20056;-61
2022/07/04 03:01:34;;;;;;;4.90;2.70;;;;;;;17.26;78.85;96241.13;2025426;29;20107;-61
2022/07/04 03:02:35;;;;;;;4.05;2.38;;;;;;;17.31;79.13;96241.66;2025896;29;20048;-59
2022/07/04 03:03:36;;;;;;;3.53;2.80;;;;;;;17.28;78.80;96241.03;2033742;29;20533;-61
2022/07/04 03:04:39;;;;;;;4.05;2.78;;;;;;;17.34;78.85;96249.31;2033659;29;20044;-62
2022/07/04 03:05:41;;;;;;;5.70;3.03;;;;;;;17.34;78.92;96240.59;2033722;29;20597;-61
2022/07/04 03:06:42;;;;;;;4.50;2.90;;;;;;;17.34;79.34;96243.22;2033477;29;20040;-61
2022/07/04 03:07:44;;;;;;;6.90;2.78;;;;;;;17.31;78.53;96233.78;2032994;29;20083;-63
2022/07/04 03:08:45;;;;;;;6.95;2.88;;;;;;;17.30;79.20;96241.78;2025925;29;20052;-60
2022/07/04 03:09:46;;;;;;;7.45;3.22;;;;;;;17.30;79.36;96239.16;2033609;29;20047;-61
2022/07/04 03:10:50;;;;;;;8.73;3.47;;;;;;;17.32;79.55;96235.47;2026623;29;20048;-61
2022/07/04 03:11:51;;;;;;;3.85;2.70;;;;;;;17.39;79.25;96234.06;2033350;29;20437;-61
2022/07/04 03:12:52;;;;;;;5.25;3.13;;;;;;;17.34;79.08;96230.94;2041185;29;20059;-61
2022/07/04 03:13:53;;;;;;;6.22;3.03;;;;;;;17.34;79.20;96230.94;2022132;29;20040;-61
2022/07/04 03:14:54;;;;;;;4.47;2.88;;;;;;;17.33;79.44;96225.81;2010234;29;20057;-61
2022/07/04 03:15:56;;;;;;;4.45;2.92;;;;;;;17.36;79.20;96223.78;2025539;29;20056;-60
2022/07/04 03:16:57;;;;;;;7.28;3.25;;;;;;;17.39;79.31;96213.06;2033347;29;20050;-61
2022/07/04 03:17:59;;;;;;;4.00;2.85;;;;;;;17.50;79.38;96206.22;2033435;29;20044;-62
2022/07/04 03:19:00;;;;;;;5.60;2.85;;;;;;;17.54;79.31;96211.16;2025480;29;20064;-61
2022/07/04 03:20:01;;;;;;;4.25;2.65;;;;;;;17.56;78.97;96196.13;2025143;29;20060;-61
2022/07/04 03:21:04;;;;;;;5.25;2.97;;;;;;;17.66;78.57;96193.66;2025229;29;20057;-61
2022/07/04 03:22:05;;;;;;;4.38;2.95;;;;;;;17.61;78.55;96196.66;2025996;29;20051;-61
2022/07/04 03:23:06;;;;;;;4.55;2.83;;;;;;;17.60;79.67;96197.56;2032596;29;20442;-60
2022/07/04 03:24:09;;;;;;;6.28;3.00;;;;;;;17.58;79.65;96217.00;2033165;29;20063;-61
2022/07/04 03:25:10;;;;;;;5.35;2.95;;;;;;;17.51;80.51;96219.25;2026530;29;20044;-60
2022/07/04 03:26:11;;;;;;;4.93;3.15;;;;;;;17.46;80.79;96228.41;2033275;29;20107;-61
2022/07/04 03:27:12;;;;;;;5.43;3.03;;;;;;;17.39;81.83;96235.88;2025461;29;20048;-61
2022/07/04 03:28:14;;;;;;;4.60;3.20;;;;;;;17.36;82.38;96226.41;2018440;29;20056;-61
2022/07/04 03:29:15;;;;;;;6.10;3.50;;;;;;;17.34;83.32;96227.47;2025587;29;20049;-61
2022/07/04 03:30:16;;;;;;;5.68;3.75;;;;;;;17.26;83.85;96241.13;2032832;29;20048;-61
2022/07/04 03:31:17;;;;;;;3.55;3.00;;;;;;;17.09;83.68;96259.84;2026269;29;20052;-61
2022/07/04 03:32:39;;;;;;;4.93;3.08;;;;;;;17.26;82.34;96263.91;2020328;29;20052;-61
2022/07/04 03:33:40;;;;;;;7.35;3.42;;;;;;;17.30;82.40;96265.41;2027773;29;20174;-61
2022/07/04 03:34:41;;;;;;;6.15;3.47;;;;;;;17.23;83.50;96264.97;2018221;29;20128;-61
2022/07/04 03:35:43;;;;;;;6.35;3.25;;;;;;;17.28;82.18;96273.38;2017928;29;20049;-61
2022/07/04 03:36:44;;;;;;;4.30;3.00;;;;;;;17.25;82.33;96268.34;2025262;29;20547;-61
2022/07/04 03:37:45;;;;;;;6.43;3.60;;;;;;;17.18;83.65;96282.81;2025835;29;20123;-62
2022/07/04 03:38:46;;;;;;;5.50;3.15;;;;;;;17.17;83.28;96281.16;2018187;29;20060;-60
2022/07/04 03:39:48;;;;;;;6.00;3.22;;;;;;;17.17;84.23;96281.16;2017914;29;20056;-61
2022/07/04 03:40:49;;;;;;;6.40;3.22;;;;;;;17.24;82.99;96292.91;2025687;29;20049;-61
2022/07/04 03:41:50;;;;;;;8.07;3.60;;;;;;;17.27;82.67;96297.09;2016811;29;20056;-61
2022/07/04 03:42:51;;;;;;;6.05;3.33;;;;;;;17.19;83.94;96308.97;2010389;29;20045;-63
2022/07/04 03:43:53;;;;;;;6.82;3.95;;;;;;;17.16;83.20;96306.56;2017804;29;20049;-61
2022/07/04 03:44:54;;;;;;;7.20;3.92;;;;;;;17.08;83.31;96308.00;2033222;29;20044;-61
2022/07/04 03:45:55;;;;;;;6.57;3.45;;;;;;;17.05;83.92;96310.84;2024762;29;20056;-61
2022/07/04 03:46:58;;;;;;;5.95;3.63;;;;;;;16.99;83.95;96312.09;2025223;29;20058;-61
2022/07/04 03:48:02;;;;;;;6.10;3.33;;;;;;;17.02;83.49;96313.69;2025304;29;20063;-61
2022/07/04 03:49:03;;;;;;;6.53;3.28;;;;;;;17.02;83.83;96314.50;2025927;29;20052;-61
2022/07/04 03:50:05;;;;;;;4.40;3.78;;;;;;;16.95;84.16;96313.28;2033593;29;20055;-61
2022/07/04 03:51:07;;;;;;;6.40;3.53;;;;;;;16.95;84.03;96313.28;2018078;29;20439;-61
2022/07/04 03:52:08;;;;;;;7.78;3.88;;;;;;;16.90;84.88;96310.94;2010756;29;20045;-62
2022/07/04 03:53:09;;;;;;;5.60;3.28;;;;;;;16.90;83.64;96313.56;2017870;29;20048;-61
2022/07/04 03:54:10;;;;;;;8.40;3.63;;;;;;;16.89;84.57;96309.28;2010143;29;20054;-60
2022/07/04 03:55:12;;;;;;;5.45;3.50;;;;;;;16.90;83.62;96313.56;2025532;29;20048;-61
2022/07/04 03:56:13;;;;;;;7.32;3.70;;;;;;;16.87;84.98;96305.06;2033188;29;20040;-61
2022/07/04 03:57:14;;;;;;;5.80;3.30;;;;;;;16.93;83.69;96305.50;2033326;29;20063;-62
2022/07/04 03:58:15;;;;;;;6.72;3.17;;;;;;;16.97;83.58;96306.97;2032393;29;20538;-61
2022/07/04 03:59:17;;;;;;;6.65;3.60;;;;;;;16.99;84.41;96304.22;2025722;29;20056;-61
2022/07/04 04:00:18;;;;;;;10.07;3.50;;;;;;;17.05;83.04;96301.19;2025519;29;20053;-61
2022/07/04 04:01:19;;;;;;;4.30;3.28;;;;;;;17.10;83.48;96300.88;2025894;29;20105;-61
2022/07/04 04:02:21;;;;;;;5.55;3.40;;;;;;;17.10;84.21;96298.25;2025359;29;20052;-61
2022/07/04 04:06:03;;;;;;;5.75;3.80;;;;;;;17.04;83.99;96275.91;2025278;29;20053;-61
2022/07/04 04:07:04;;;;;;;6.45;3.40;;;;;;;17.07;84.39;96274.84;2020254;29;20056;-60
2022/07/04 04:08:05;;;;;;;5.90;3.13;;;;;;;17.09;83.87;96271.19;2025075;29;20048;-61
2022/07/04 04:09:06;;;;;;;6.88;3.60;;;;;;;17.12;83.82;96267.50;2033362;29;20055;-61
2022/07/04 04:10:08;;;;;;;6.47;3.03;;;;;;;17.12;83.73;96264.88;2024995;29;20435;-61
2022/07/04 04:11:10;;;;;;;8.80;3.58;;;;;;;17.11;85.14;96263.22;2010149;29;20053;-61
2022/07/04 04:12:11;;;;;;;6.05;3.17;;;;;;;17.14;83.99;96274.31;2017791;29;20057;-61
2022/07/04 04:13:12;;;;;;;5.63;3.20;;;;;;;17.12;83.70;96283.25;2033309;29;20611;-62
2022/07/04 04:14:13;;;;;;;5.88;3.08;;;;;;;17.14;83.96;96290.06;2038704;29;20050;-61
2022/07/04 04:15:15;;;;;;;4.82;3.03;;;;;;;17.18;83.50;96303.81;2025382;29;20052;-61
2022/07/04 04:16:16;;;;;;;6.68;3.10;;;;;;;17.29;82.57;96311.78;2026012;29;20048;-61
2022/07/04 04:17:18;;;;;;;7.05;3.33;;;;;;;17.40;82.19;96313.66;2032999;29;20052;-61
2022/07/04 04:18:19;;;;;;;6.53;3.28;;;;;;;17.48;81.41;96318.38;2032638;29;20048;-61
2022/07/04 04:19:20;;;;;;;7.95;3.80;;;;;;;17.51;81.80;96321.66;2040773;29;20542;-61
2022/07/04 04:20:21;;;;;;;6.25;3.47;;;;;;;17.56;82.28;96327.44;2032950;29;20060;-61
2022/07/04 04:21:22;;;;;;;7.28;3.38;;;;;;;17.60;81.69;96326.25;2033121;29;20048;-61
2022/07/04 04:22:24;;;;;;;6.65;3.30;;;;;;;17.61;81.69;96322.69;2032765;29;20048;-61
2022/07/04 04:23:25;;;;;;;6.68;3.22;;;;;;;17.68;80.41;96328.34;2033199;29;20051;-61
2022/07/04 04:24:26;;;;;;;5.75;3.03;;;;;;;17.68;80.19;96325.72;2041275;29;20051;-61
2022/07/04 04:25:27;;;;;;;4.10;3.50;;;;;;;17.67;79.83;96321.41;2040684;29;20040;-63
2022/07/04 04:26:29;;;;;;;5.15;3.42;;;;;;;17.74;80.17;96319.19;2033380;29;20106;-61
2022/07/04 04:27:30;;;;;;;6.55;3.75;;;;;;;17.75;79.58;96319.09;2033559;29;20040;-61
2022/07/04 04:28:31;;;;;;;5.38;3.17;;;;;;;17.78;79.66;96321.50;2032841;29;20044;-60
2022/07/04 04:29:32;;;;;;;5.65;3.03;;;;;;;17.76;79.87;96314.66;2032874;29;20055;-61
2022/07/04 04:30:33;;;;;;;5.53;3.28;;;;;;;17.75;80.22;96321.72;2041280;29;20062;-62
2022/07/04 04:31:35;;;;;;;8.18;4.63;;;;;;;17.66;81.19;96338.09;2040817;29;20048;-59
2022/07/04 04:32:37;;;;;;;9.35;4.00;;;;;;;17.62;82.29;96339.28;2040590;29;20533;-61
2022/07/04 04:33:38;;;;;;;5.32;3.22;;;;;;;17.59;82.71;96337.72;2033421;29;20047;-61
2022/07/04 04:34:39;;;;;;;9.50;3.40;;;;;;;17.59;81.44;96342.97;2033517;29;20051;-61
2022/07/04 04:35:40;;;;;;;5.25;2.83;;;;;;;17.67;80.92;96341.56;2040897;29;20040;-61
2022/07/04 04:36:42;;;;;;;10.05;3.75;;;;;;;17.66;81.57;96345.16;2041299;28;20055;-62
2022/07/04 04:37:43;;;;;;;4.28;3.00;;;;;;;17.68;81.35;96351.16;2040782;29;20054;-60
2022/07/04 04:38:44;;;;;;;6.55;3.20;;;;;;;17.79;80.90;96344.22;2040479;29;20051;-61
2022/07/04 04:39:46;;;;;;;6.03;3.03;;;;;;;17.82;80.85;96348.41;2040450;29;20059;-61
2022/07/04 04:40:47;;;;;;;5.05;3.28;;;;;;;17.81;80.27;96349.38;2032855;29;20508;-60
2022/07/04 04:41:48;;;;;;;6.90;2.90;;;;;;;17.86;80.81;96355.13;2032919;29;20059;-61
2022/07/04 04:42:49;;;;;;;5.57;3.20;;;;;;;17.90;79.36;96361.00;2040483;29;20043;-60
2022/07/04 04:43:51;;;;;;;7.47;3.13;;;;;;;17.88;80.42;96360.28;2040930;29;20059;-61
2022/07/04 04:44:52;;;;;;;7.60;4.00;;;;;;;17.88;80.30;96355.84;2040734;29;20048;-61
2022/07/04 04:45:53;;;;;;;6.32;3.47;;;;;;;17.94;80.43;96362.47;2024896;29;20048;-61
2022/07/04 04:46:54;;;;;;;8.52;2.97;;;;;;;17.97;79.72;96352.59;2033101;29;20048;-60
2022/07/04 04:47:56;;;;;;;4.57;3.17;;;;;;;18.13;79.39;96347.06;2040723;29;20051;-61
2022/07/04 04:48:57;;;;;;;6.22;3.60;;;;;;;18.19;78.60;96349.25;2032838;29;20059;-61
2022/07/04 04:49:58;;;;;;;6.57;3.22;;;;;;;18.20;78.20;96345.69;2032528;29;20055;-60
2022/07/04 04:50:59;;;;;;;6.53;3.22;;;;;;;18.29;77.79;96344.19;2040826;29;20536;-61
2022/07/04 04:52:01;;;;;;;5.60;3.30;;;;;;;18.34;78.33;96349.94;2033073;29;20436;-61
2022/07/04 04:53:02;;;;;;;6.50;3.40;;;;;;;18.30;77.99;96346.69;2032911;29;20243;-60
2022/07/04 04:54:03;;;;;;;5.82;3.50;;;;;;;18.27;78.93;96341.66;2033794;29;20453;-61
2022/07/04 04:55:04;;;;;;;7.10;3.30;;;;;;;18.24;79.42;96347.13;2034663;29;20089;-60
2022/07/04 04:56:06;;;;;;;5.10;3.10;;;;;;;18.25;78.78;96348.81;2035404;29;20052;-61